createdAt,value
2022-09-12T00:00:51.046Z,91.90
2022-09-12T00:03:17.242Z,91.90
2022-09-12T00:05:45.004Z,91.90
2022-09-12T00:08:12.336Z,91.90
2022-09-12T00:10:43.139Z,92.00
2022-09-12T00:13:10.045Z,91.90
2022-09-12T00:15:43.581Z,91.80
2022-09-12T00:18:15.980Z,91.80
2022-09-12T00:20:46.383Z,91.90
2022-09-12T00:23:13.561Z,91.80
2022-09-12T00:25:44.315Z,91.90
2022-09-12T00:28:11.885Z,92.00
2022-09-12T00:30:46.390Z,92.00
2022-09-12T00:33:13.360Z,92.00
2022-09-12T00:35:48.631Z,92.00
2022-09-12T00:38:15.988Z,92.10
2022-09-12T00:40:43.253Z,92.10
2022-09-12T00:43:14.620Z,92.20
2022-09-12T00:45:42.135Z,92.30
2022-09-12T00:48:22.679Z,92.20
2022-09-12T00:50:49.797Z,92.30
2022-09-12T00:53:16.374Z,92.30
2022-09-12T00:55:48.637Z,92.30
2022-09-12T00:58:23.744Z,92.40
2022-09-12T01:00:50.813Z,92.50
2022-09-12T01:03:21.806Z,92.60
2022-09-12T01:06:14.892Z,92.90
2022-09-12T01:08:43.967Z,92.70
2022-09-12T01:11:12.250Z,92.60
2022-09-12T01:13:39.118Z,92.60
2022-09-12T01:16:06.833Z,92.70
2022-09-12T01:18:54.338Z,92.70
2022-09-12T01:21:46.788Z,92.70
2022-09-12T01:24:25.890Z,92.80
2022-09-12T01:27:20.893Z,92.70
2022-09-12T01:30:25.089Z,92.80
2022-09-12T01:33:02.803Z,92.80
2022-09-12T01:35:57.186Z,92.80
2022-09-12T01:38:46.345Z,92.90
2022-09-12T01:41:25.516Z,92.90
2022-09-12T01:44:01.683Z,92.80
2022-09-12T01:46:46.511Z,92.90
2022-09-12T01:49:12.611Z,92.90
2022-09-12T01:51:44.429Z,92.90
2022-09-12T01:54:20.058Z,92.90
2022-09-12T01:56:49.338Z,92.90
2022-09-12T01:59:36.501Z,93.10
2022-09-12T02:02:16.011Z,93.20
2022-09-12T02:04:50.902Z,93.30
2022-09-12T02:07:26.764Z,93.40
2022-09-12T02:10:01.987Z,93.50
2022-09-12T02:12:36.496Z,93.50
2022-09-12T02:15:07.830Z,93.50
2022-09-12T02:17:38.528Z,93.40
2022-09-12T02:20:17.758Z,93.30
2022-09-12T02:22:59.526Z,93.30
2022-09-12T02:25:27.453Z,93.40
2022-09-12T02:28:01.546Z,93.40
2022-09-12T02:30:35.054Z,93.50
2022-09-12T02:33:06.977Z,93.60
2022-09-12T02:35:43.354Z,93.60
2022-09-12T02:38:15.361Z,93.70
2022-09-12T02:40:41.537Z,93.60
2022-09-12T02:43:07.732Z,93.60
2022-09-12T02:45:36.124Z,93.60
2022-09-12T02:48:09.411Z,93.60
2022-09-12T02:50:37.063Z,93.70
2022-09-12T02:53:06.471Z,93.80
2022-09-12T02:55:33.873Z,93.80
2022-09-12T02:58:06.124Z,93.90
2022-09-12T03:00:41.129Z,93.80
2022-09-12T03:03:22.565Z,93.80
2022-09-12T03:05:57.253Z,93.80
2022-09-12T03:09:01.084Z,93.80
2022-09-12T03:11:45.155Z,93.90
2022-09-12T03:14:20.056Z,93.80
2022-09-12T03:16:54.897Z,93.80
2022-09-12T03:19:33.393Z,93.80
2022-09-12T03:22:21.925Z,93.80
2022-09-12T03:24:52.291Z,93.80
2022-09-12T03:27:44.573Z,93.80
2022-09-12T03:30:11.972Z,94.00
2022-09-12T03:32:45.249Z,94.00
2022-09-12T03:35:12.972Z,94.00
2022-09-12T03:37:39.329Z,94.10
2022-09-12T03:40:07.157Z,94.20
2022-09-12T03:42:33.477Z,94.20
2022-09-12T03:44:59.908Z,94.20
2022-09-12T03:47:26.241Z,94.20
2022-09-12T03:49:52.402Z,94.20
2022-09-12T03:52:19.446Z,94.20
2022-09-12T03:54:45.594Z,94.30
2022-09-12T03:57:12.332Z,94.30
2022-09-12T03:59:38.473Z,94.50
2022-09-12T04:02:04.636Z,94.60
2022-09-12T04:04:31.411Z,94.50
2022-09-12T04:06:57.824Z,94.40
2022-09-12T04:09:23.969Z,94.30
2022-09-12T04:11:50.064Z,94.30
2022-09-12T04:14:16.217Z,94.30
2022-09-12T04:16:42.296Z,94.30
2022-09-12T04:19:11.032Z,94.30
2022-09-12T04:21:37.344Z,94.30
2022-09-12T04:24:03.547Z,94.30
2022-09-12T04:26:31.245Z,94.20
2022-09-12T04:28:57.818Z,94.20
2022-09-12T04:31:25.409Z,94.20
2022-09-12T04:33:59.892Z,94.10
2022-09-12T04:36:27.797Z,94.10
2022-09-12T04:38:54.993Z,94.10
2022-09-12T04:41:32.949Z,94.10
2022-09-12T04:44:01.949Z,94.10
2022-09-12T04:46:30.090Z,94.20
2022-09-12T04:48:57.242Z,94.20
2022-09-12T04:51:27.146Z,94.30
2022-09-12T04:53:58.500Z,94.40
2022-09-12T04:56:25.782Z,94.40
2022-09-12T04:58:52.462Z,94.40
2022-09-12T05:01:21.617Z,94.50
2022-09-12T05:03:49.221Z,94.50
2022-09-12T05:06:22.033Z,94.40
2022-09-12T05:08:48.721Z,94.30
2022-09-12T05:11:22.732Z,94.20
2022-09-12T05:13:51.384Z,94.20
2022-09-12T05:16:18.771Z,94.20
2022-09-12T05:18:46.657Z,94.10
2022-09-12T05:21:15.807Z,94.10
2022-09-12T05:23:42.885Z,94.00
2022-09-12T05:26:13.386Z,94.00
2022-09-12T05:28:39.817Z,94.10
2022-09-12T05:31:07.280Z,94.10
2022-09-12T05:33:35.736Z,94.20
2022-09-12T05:36:04.062Z,94.30
2022-09-12T05:38:30.845Z,94.30
2022-09-12T05:41:05.534Z,94.30
2022-09-12T05:43:33.242Z,94.20
2022-09-12T05:46:04.637Z,94.20
2022-09-12T05:48:30.880Z,94.10
2022-09-12T05:51:02.775Z,94.00
2022-09-12T05:53:30.684Z,93.90
2022-09-12T05:56:18.531Z,93.80
2022-09-12T05:58:47.851Z,93.90
2022-09-12T06:01:16.675Z,93.90
2022-09-12T06:03:45.112Z,94.00
2022-09-12T06:06:15.613Z,94.10
2022-09-12T06:08:44.586Z,94.30
2022-09-12T06:11:16.551Z,94.40
2022-09-12T06:13:43.184Z,94.40
2022-09-12T06:16:11.331Z,94.50
2022-09-12T06:18:38.810Z,94.50
2022-09-12T06:21:13.006Z,94.50
2022-09-12T06:23:40.282Z,94.70
2022-09-12T06:26:09.595Z,94.30
2022-09-12T06:28:38.740Z,94.20
2022-09-12T06:31:07.588Z,94.10
2022-09-12T06:33:35.912Z,94.00
2022-09-12T06:36:06.114Z,93.90
2022-09-12T06:38:35.407Z,93.90
2022-09-12T06:41:06.524Z,93.80
2022-09-12T06:43:33.731Z,93.80
2022-09-12T06:46:02.924Z,93.50
2022-09-12T06:48:29.291Z,93.00
2022-09-12T06:51:04.159Z,93.20
2022-09-12T06:53:32.960Z,92.00
2022-09-12T06:56:08.973Z,91.10
2022-09-12T06:58:35.756Z,90.80
2022-09-12T07:01:03.068Z,90.80
2022-09-12T07:03:29.927Z,90.90
2022-09-12T07:05:55.997Z,91.00
2022-09-12T07:08:22.560Z,91.00
2022-09-12T07:10:48.882Z,90.80
2022-09-12T07:13:15.094Z,90.70
2022-09-12T07:15:41.395Z,90.60
2022-09-12T07:18:10.271Z,90.50
2022-09-12T07:20:38.688Z,90.50
2022-09-12T07:23:05.096Z,90.60
2022-09-12T07:25:31.188Z,90.50
2022-09-12T07:27:57.378Z,90.10
2022-09-12T07:30:23.687Z,90.00
2022-09-12T07:32:53.413Z,89.80
2022-09-12T07:35:20.644Z,89.00
2022-09-12T07:37:46.870Z,87.30
2022-09-12T07:40:13.465Z,82.70
2022-09-12T07:42:39.592Z,78.20
2022-09-12T07:45:07.244Z,75.50
2022-09-12T07:47:33.460Z,72.20
2022-09-12T07:49:59.606Z,67.60
2022-09-12T07:52:25.946Z,63.80
2022-09-12T07:54:52.020Z,60.40
2022-09-12T07:57:18.317Z,58.30
2022-09-12T07:59:53.188Z,57.20
2022-09-12T08:02:19.906Z,56.60
2022-09-12T08:04:47.921Z,55.30
2022-09-12T08:07:14.693Z,53.70
2022-09-12T08:09:40.758Z,51.80
2022-09-12T08:12:07.050Z,50.30
2022-09-12T08:14:33.186Z,49.10
2022-09-12T08:16:59.577Z,47.40
2022-09-12T08:19:25.749Z,46.50
2022-09-12T08:21:51.821Z,46.00
2022-09-12T08:24:17.920Z,45.00
2022-09-12T08:26:44.008Z,44.00
2022-09-12T08:29:10.071Z,43.90
2022-09-12T08:31:36.463Z,43.10
2022-09-12T08:34:05.945Z,42.10
2022-09-12T08:36:33.072Z,41.70
2022-09-12T08:39:04.323Z,41.50
2022-09-12T08:41:41.047Z,41.00
2022-09-12T08:44:34.952Z,40.90
2022-09-12T08:47:34.767Z,40.60
2022-09-12T08:50:09.295Z,40.60
2022-09-12T08:52:35.321Z,39.80
2022-09-12T08:55:04.738Z,38.90
2022-09-12T08:57:30.781Z,39.90
2022-09-12T08:59:56.988Z,38.50
2022-09-12T09:02:32.039Z,37.40
2022-09-12T09:05:25.870Z,38.50
2022-09-12T09:08:41.150Z,36.90
2022-09-12T09:11:37.079Z,36.40
2022-09-12T09:14:45.517Z,36.90
2022-09-12T09:17:31.277Z,36.80
2022-09-12T09:20:28.057Z,36.10
2022-09-12T09:23:00.870Z,36.10
2022-09-12T09:26:10.442Z,35.60
2022-09-12T09:28:39.312Z,34.90
2022-09-12T09:31:14.093Z,34.50
2022-09-12T09:33:40.494Z,34.80
2022-09-12T09:36:32.133Z,33.90
2022-09-12T09:39:10.544Z,34.30
2022-09-12T09:41:55.324Z,34.10
2022-09-12T09:44:21.816Z,33.50
2022-09-12T09:46:55.407Z,33.00
2022-09-12T09:49:22.137Z,33.50
2022-09-12T09:51:48.701Z,33.80
2022-09-12T09:54:22.849Z,32.40
2022-09-12T09:56:49.811Z,32.70
2022-09-12T09:59:19.602Z,32.20
2022-09-12T10:02:06.102Z,32.60
2022-09-12T10:04:41.409Z,32.20
2022-09-12T10:07:18.546Z,32.20
2022-09-12T10:10:14.480Z,31.80
2022-09-12T10:12:40.675Z,31.90
2022-09-12T10:15:20.688Z,31.40
2022-09-12T10:17:49.353Z,32.00
2022-09-12T10:20:39.160Z,31.60
2022-09-12T10:23:36.288Z,31.60
2022-09-12T10:26:07.998Z,31.90
2022-09-12T10:28:44.698Z,31.00
2022-09-12T10:31:15.947Z,30.80
2022-09-12T10:33:52.529Z,30.80
2022-09-12T10:36:20.046Z,30.60
2022-09-12T10:39:00.259Z,30.30
2022-09-12T10:41:34.142Z,30.80
2022-09-12T10:44:18.595Z,30.00
2022-09-12T10:46:45.088Z,30.00
2022-09-12T10:49:22.131Z,29.90
2022-09-12T10:51:48.892Z,30.20
2022-09-12T10:54:18.706Z,30.40
2022-09-12T10:57:03.032Z,29.40
2022-09-12T10:59:49.033Z,29.60
2022-09-12T11:02:35.333Z,30.10
2022-09-12T11:05:27.560Z,29.70
2022-09-12T11:08:25.987Z,29.30
2022-09-12T11:11:01.718Z,29.90
2022-09-12T11:14:01.454Z,29.70
2022-09-12T11:16:56.825Z,29.40
2022-09-12T11:19:43.500Z,28.30
2022-09-12T11:22:35.900Z,29.10
2022-09-12T11:25:38.027Z,29.30
2022-09-12T11:28:23.588Z,29.20
2022-09-12T11:30:52.723Z,29.00
2022-09-12T11:33:42.818Z,28.70
2022-09-12T11:36:53.393Z,28.80
2022-09-12T11:39:42.848Z,29.20
2022-09-12T11:42:19.074Z,29.20
2022-09-12T11:44:51.867Z,29.40
2022-09-12T11:47:20.271Z,29.10
2022-09-12T11:49:50.393Z,28.60
2022-09-12T11:52:23.121Z,29.10
2022-09-12T11:54:58.408Z,28.60
2022-09-12T11:57:39.504Z,28.60
2022-09-12T12:00:25.956Z,29.00
2022-09-12T12:03:10.546Z,28.60
2022-09-12T12:05:53.669Z,28.70
2022-09-12T12:08:22.931Z,28.40
2022-09-12T12:10:59.393Z,28.60
2022-09-12T12:13:46.951Z,28.90
2022-09-12T12:16:36.821Z,28.70
2022-09-12T12:19:24.169Z,28.70
2022-09-12T12:21:53.519Z,28.90
2022-09-12T12:24:25.364Z,29.00
2022-09-12T12:27:03.571Z,29.40
2022-09-12T12:29:43.681Z,29.10
2022-09-12T12:32:10.038Z,29.10
2022-09-12T12:34:39.567Z,28.70
2022-09-12T12:37:20.833Z,29.10
2022-09-12T12:39:50.620Z,28.80
2022-09-12T12:42:34.886Z,28.90
2022-09-12T12:45:28.473Z,29.10
2022-09-12T12:48:08.252Z,28.80
2022-09-12T12:50:34.766Z,29.00
2022-09-12T12:53:24.874Z,29.10
2022-09-12T12:55:53.973Z,29.00
2022-09-12T12:58:39.207Z,29.10
2022-09-12T13:01:20.746Z,29.80
2022-09-12T13:03:55.820Z,29.80
2022-09-12T13:06:35.377Z,30.00
2022-09-12T13:09:05.951Z,29.90
2022-09-12T13:11:38.171Z,30.50
2022-09-12T13:14:08.645Z,30.60
2022-09-12T13:16:37.944Z,30.40
2022-09-12T13:19:18.752Z,29.90
2022-09-12T13:21:56.031Z,29.70
2022-09-12T13:24:23.430Z,29.40
2022-09-12T13:26:49.700Z,29.80
2022-09-12T13:29:18.321Z,29.90
2022-09-12T13:31:52.093Z,30.10
2022-09-12T13:34:34.719Z,29.80
2022-09-12T13:37:36.910Z,30.20
2022-09-12T13:40:18.488Z,30.40
2022-09-12T13:42:50.518Z,31.60
2022-09-12T13:45:26.256Z,31.70
2022-09-12T13:48:00.084Z,32.40
2022-09-12T13:50:31.139Z,32.10
2022-09-12T13:53:05.041Z,33.40
2022-09-12T13:55:38.382Z,33.80
2022-09-12T13:58:23.501Z,33.10
2022-09-12T14:01:15.247Z,33.10
2022-09-12T14:04:14.459Z,33.40
2022-09-12T14:06:48.855Z,33.40
2022-09-12T14:09:29.213Z,32.70
2022-09-12T14:11:55.873Z,32.80
2022-09-12T14:14:31.058Z,33.50
2022-09-12T14:16:58.405Z,35.00
2022-09-12T14:19:25.958Z,34.40
2022-09-12T14:21:53.162Z,34.50
2022-09-12T14:24:22.715Z,34.00
2022-09-12T14:26:50.528Z,35.00
2022-09-12T14:29:17.334Z,35.80
2022-09-12T14:31:44.410Z,36.20
2022-09-12T14:34:14.582Z,36.70
2022-09-12T14:36:51.164Z,37.10
2022-09-12T14:39:28.512Z,38.20
2022-09-12T14:42:21.649Z,39.60
2022-09-12T14:45:15.479Z,39.30
2022-09-12T14:47:43.753Z,40.50
2022-09-12T14:50:20.263Z,40.00
2022-09-12T14:53:02.282Z,40.30
2022-09-12T14:55:30.818Z,40.00
2022-09-12T14:58:29.529Z,39.80
2022-09-12T15:01:06.599Z,40.90
2022-09-12T15:03:50.741Z,41.60
2022-09-12T15:06:22.569Z,41.70
2022-09-12T15:08:48.869Z,43.60
2022-09-12T15:11:15.013Z,43.00
2022-09-12T15:13:41.863Z,42.60
2022-09-12T15:16:10.387Z,43.20
2022-09-12T15:18:37.306Z,43.00
2022-09-12T15:21:06.983Z,43.50
2022-09-12T15:23:42.633Z,44.40
2022-09-12T15:26:15.796Z,44.50
2022-09-12T15:28:42.360Z,45.40
2022-09-12T15:31:30.942Z,44.60
2022-09-12T15:33:59.183Z,44.90
2022-09-12T15:36:26.555Z,44.90
2022-09-12T15:38:53.603Z,46.00
2022-09-12T15:41:28.463Z,45.00
2022-09-12T15:43:55.829Z,45.20
2022-09-12T15:46:22.918Z,44.40
2022-09-12T15:48:49.618Z,45.40
2022-09-12T15:51:18.073Z,45.40
2022-09-12T15:53:45.759Z,45.70
2022-09-12T15:56:14.314Z,45.00
2022-09-12T15:58:54.749Z,44.80
2022-09-12T16:01:23.708Z,44.80
2022-09-12T16:03:49.767Z,46.00
2022-09-12T16:06:16.193Z,44.90
2022-09-12T16:08:42.366Z,44.90
2022-09-12T16:11:20.657Z,44.60
2022-09-12T16:13:47.087Z,44.60
2022-09-12T16:16:13.455Z,45.00
2022-09-12T16:18:40.467Z,45.30
2022-09-12T16:21:09.099Z,46.10
2022-09-12T16:23:41.313Z,46.90
2022-09-12T16:26:07.434Z,46.50
2022-09-12T16:28:33.932Z,46.60
2022-09-12T16:31:04.476Z,47.10
2022-09-12T16:33:32.020Z,47.10
2022-09-12T16:36:09.662Z,47.20
2022-09-12T16:38:47.833Z,47.20
2022-09-12T16:41:15.272Z,48.00
2022-09-12T16:43:43.301Z,47.50
2022-09-12T16:46:17.786Z,47.00
2022-09-12T16:48:52.081Z,47.40
2022-09-12T16:51:21.573Z,48.60
2022-09-12T16:53:48.137Z,47.60
2022-09-12T16:56:15.911Z,47.90
2022-09-12T16:58:42.972Z,47.40
2022-09-12T17:01:20.127Z,48.50
2022-09-12T17:03:46.538Z,49.10
2022-09-12T17:06:23.908Z,49.30
2022-09-12T17:08:52.548Z,49.60
2022-09-12T17:11:29.835Z,50.00
2022-09-12T17:14:04.925Z,50.40
2022-09-12T17:16:39.650Z,51.40
2022-09-12T17:19:07.350Z,51.50
2022-09-12T17:21:37.453Z,51.20
2022-09-12T17:24:03.716Z,51.00
2022-09-12T17:26:30.737Z,51.20
2022-09-12T17:28:57.099Z,51.80
2022-09-12T17:31:23.492Z,52.50
2022-09-12T17:33:50.121Z,53.10
2022-09-12T17:36:17.469Z,53.70
2022-09-12T17:38:45.431Z,54.30
2022-09-12T17:41:20.891Z,54.60
2022-09-12T17:43:53.921Z,54.40
2022-09-12T17:46:21.431Z,54.30
2022-09-12T17:48:53.091Z,54.90
2022-09-12T17:51:20.365Z,55.30
2022-09-12T17:53:47.616Z,55.90
2022-09-12T17:56:15.267Z,56.90
2022-09-12T17:58:44.338Z,57.90
2022-09-12T18:01:32.167Z,58.60
2022-09-12T18:04:00.212Z,59.40
2022-09-12T18:06:27.575Z,59.70
2022-09-12T18:08:54.609Z,59.50
2022-09-12T18:11:21.148Z,59.80
2022-09-12T18:13:48.107Z,59.80
2022-09-12T18:16:14.831Z,60.20
2022-09-12T18:18:41.550Z,60.80
2022-09-12T18:21:09.673Z,61.00
2022-09-12T18:23:36.156Z,61.40
2022-09-12T18:26:05.035Z,61.90
2022-09-12T18:28:33.009Z,62.50
2022-09-12T18:31:01.035Z,62.90
2022-09-12T18:33:27.440Z,63.50
2022-09-12T18:35:55.375Z,63.80
2022-09-12T18:38:22.306Z,64.30
2022-09-12T18:40:48.936Z,64.70
2022-09-12T18:43:15.498Z,64.80
2022-09-12T18:45:41.610Z,64.90
2022-09-12T18:48:08.725Z,65.00
2022-09-12T18:50:34.980Z,65.10
2022-09-12T18:53:02.336Z,65.40
2022-09-12T18:55:30.428Z,65.60
2022-09-12T18:57:56.599Z,65.90
2022-09-12T19:00:25.174Z,66.20
2022-09-12T19:02:51.379Z,66.50
2022-09-12T19:05:17.854Z,66.80
2022-09-12T19:07:43.989Z,66.90
2022-09-12T19:10:10.616Z,66.90
2022-09-12T19:12:36.971Z,67.20
2022-09-12T19:15:03.819Z,67.50
2022-09-12T19:17:29.984Z,67.70
2022-09-12T19:19:56.108Z,67.90
2022-09-12T19:22:22.228Z,68.00
2022-09-12T19:24:48.285Z,68.10
2022-09-12T19:27:15.406Z,68.20
2022-09-12T19:29:41.759Z,68.30
2022-09-12T19:32:07.881Z,68.50
2022-09-12T19:34:34.013Z,68.70
2022-09-12T19:37:00.297Z,69.00
2022-09-12T19:39:26.505Z,69.10
2022-09-12T19:41:52.584Z,69.30
2022-09-12T19:44:20.041Z,69.30
2022-09-12T19:46:46.207Z,69.60
2022-09-12T19:49:13.923Z,69.90
2022-09-12T19:51:40.653Z,70.00
2022-09-12T19:54:07.131Z,70.30
2022-09-12T19:56:33.191Z,70.60
2022-09-12T19:59:02.872Z,70.60
2022-09-12T20:01:29.132Z,70.60
2022-09-12T20:03:58.495Z,70.80
2022-09-12T20:06:26.289Z,71.20
2022-09-12T20:08:53.203Z,71.10
2022-09-12T20:11:21.221Z,71.30
2022-09-12T20:13:47.398Z,71.50
2022-09-12T20:16:21.630Z,71.50
2022-09-12T20:18:56.094Z,71.60
2022-09-12T20:21:25.871Z,71.70
2022-09-12T20:23:52.210Z,71.70
2022-09-12T20:26:19.498Z,72.00
2022-09-12T20:28:45.614Z,72.30
2022-09-12T20:31:14.457Z,72.50
2022-09-12T20:33:40.785Z,72.80
2022-09-12T20:36:15.509Z,73.00
2022-09-12T20:38:46.173Z,73.70
2022-09-12T20:41:12.452Z,73.90
2022-09-12T20:43:39.952Z,74.20
2022-09-12T20:46:09.199Z,74.50
2022-09-12T20:48:36.309Z,74.80
2022-09-12T20:51:02.587Z,75.00
2022-09-12T20:53:31.724Z,75.30
2022-09-12T20:56:00.964Z,75.40
2022-09-12T20:58:27.049Z,75.50
2022-09-12T21:00:56.968Z,75.70
2022-09-12T21:03:23.202Z,75.90
2022-09-12T21:05:49.553Z,76.00
2022-09-12T21:08:16.473Z,76.10
2022-09-12T21:10:43.805Z,76.20
2022-09-12T21:13:11.438Z,76.10
2022-09-12T21:15:39.247Z,76.30
2022-09-12T21:18:06.202Z,76.70
2022-09-12T21:20:32.734Z,76.80
2022-09-12T21:22:59.074Z,76.90
2022-09-12T21:25:25.139Z,77.00
2022-09-12T21:27:51.282Z,77.10
2022-09-12T21:30:19.855Z,77.10
2022-09-12T21:32:45.979Z,77.20
2022-09-12T21:35:12.089Z,77.40
2022-09-12T21:37:38.124Z,78.20
2022-09-12T21:40:04.611Z,77.70
2022-09-12T21:42:31.173Z,77.70
2022-09-12T21:44:57.290Z,77.70
2022-09-12T21:47:26.022Z,77.80
2022-09-12T21:49:52.125Z,78.10
2022-09-12T21:52:18.273Z,78.70
2022-09-12T21:54:44.441Z,78.10
2022-09-12T21:57:10.538Z,78.90
2022-09-12T21:59:36.611Z,78.50
2022-09-12T22:02:03.440Z,78.70
2022-09-12T22:04:32.190Z,78.80
2022-09-12T22:06:58.366Z,78.90
2022-09-12T22:09:25.377Z,78.80
2022-09-12T22:11:51.724Z,78.70
2022-09-12T22:14:17.859Z,78.60
2022-09-12T22:16:44.164Z,78.50
2022-09-12T22:19:10.249Z,78.40
2022-09-12T22:21:56.301Z,78.30
2022-09-12T22:24:29.076Z,78.20
2022-09-12T22:26:56.742Z,78.30
2022-09-12T22:29:22.999Z,78.40
2022-09-12T22:31:49.724Z,78.70
2022-09-12T22:34:15.925Z,79.00
2022-09-12T22:36:42.123Z,79.10
2022-09-12T22:39:08.393Z,79.20
2022-09-12T22:41:34.671Z,79.10
2022-09-12T22:44:00.925Z,79.10
2022-09-12T22:46:27.081Z,78.80
2022-09-12T22:48:54.967Z,78.90
2022-09-12T22:51:21.072Z,79.00
2022-09-12T22:53:47.354Z,79.10
2022-09-12T22:56:13.497Z,79.00
2022-09-12T22:58:41.189Z,79.00
2022-09-12T23:01:08.001Z,79.10
2022-09-12T23:03:34.764Z,79.00
2022-09-12T23:06:01.616Z,78.90
2022-09-12T23:08:28.914Z,78.90
2022-09-12T23:11:03.589Z,78.90
2022-09-12T23:13:30.337Z,79.10
2022-09-12T23:15:57.977Z,79.10
2022-09-12T23:18:24.196Z,79.20
2022-09-12T23:21:01.739Z,79.30
2022-09-12T23:23:28.600Z,79.80
2022-09-12T23:26:07.029Z,79.90
2022-09-12T23:28:34.766Z,80.10
2022-09-12T23:31:01.438Z,80.10
2022-09-12T23:33:28.920Z,80.20
2022-09-12T23:35:59.561Z,80.50
2022-09-12T23:38:25.834Z,80.60
2022-09-12T23:40:51.990Z,80.60
2022-09-12T23:43:18.374Z,80.60
2022-09-12T23:45:44.810Z,80.60
2022-09-12T23:48:10.980Z,80.70
2022-09-12T23:50:36.977Z,80.80
2022-09-12T23:53:03.092Z,81.00
2022-09-12T23:55:29.188Z,81.20
2022-09-12T23:57:55.312Z,81.20
